Home > Products > Valid Products > MTR

000
SAUS46 KMFR 200433
MTRSXT
SPECI KSXT 200432Z AUTO 21013G20KT 10SM FEW004 10/09 A2983 RMK AO2
T01000094





000
SAUS46 KMFR 200357
MTRSXT
METAR KSXT 200356Z AUTO 18010G17KT 10SM CLR 10/09 A2982 RMK AO2
SLP080 T01000094





000
SAUS46 KMFR 200257
MTRSXT
METAR KSXT 200256Z AUTO 20014G21KT 10SM CLR 12/09 A2983 RMK AO2
SLP079 T01170094 56005





000
SAUS46 KMFR 200157
MTRSXT
METAR KSXT 200156Z AUTO 19010KT 10SM CLR 13/09 A2983 RMK AO2 SLP079
T01280089





000
SAUS46 KMFR 200057
MTRSXT
METAR KSXT 200056Z AUTO 20011KT 10SM CLR 14/08 A2983 RMK AO2 SLP077
T01390083





000
SAUS46 KMFR 192357
MTRSXT
METAR KSXT 192356Z AUTO 20011G19KT 10SM CLR 16/08 A2984 RMK AO2
SLP079 T01560078 10178 20133 56006





000
SAUS46 KMFR 192357
MTRSXT
METAR KSXT 192356Z AUTO 20011G19KT 10SM CLR 16/08 A2984 RMK AO2
SLP079 T01560078 10178 20133 56006





000
SAUS46 KMFR 192257
MTRSXT
METAR KSXT 192256Z AUTO 20009G14KT 170V240 10SM CLR 18/08 A2985 RMK
AO2 SLP076 T01780078





000
SAUS46 KMFR 192257
MTRSXT
METAR KSXT 192256Z AUTO 20009G14KT 170V240 10SM CLR 18/08 A2985 RMK
AO2 SLP076 T01780078





000
SAUS46 KMFR 192157
MTRSXT
METAR KSXT 192156Z AUTO 19007KT 160V230 10SM CLR 17/09 A2985 RMK AO2
SLP078 T01720089





000
SAUS46 KMFR 192057
MTRSXT
METAR KSXT 192056Z AUTO 20007KT 160V230 10SM CLR 17/10 A2986 RMK AO2
SLP080 T01720100 58009





000
SAUS46 KMFR 191957
MTRSXT
METAR KSXT 191956Z AUTO 18008KT 10SM CLR 17/11 A2988 RMK AO2 SLP088
T01670106





000
SAUS46 KMFR 191857
MTRSXT
METAR KSXT 191856Z AUTO 18010G19KT 10SM CLR 15/10 A2989 RMK AO2
SLP093 T01500100





000
SAUS46 KMFR 191757
MTRSXT
METAR KSXT 191756Z AUTO 18006KT 10SM CLR 13/10 A2989 RMK AO2 SLP096
T01330100 10133 20100 53007





000
SAUS46 KMFR 191725
MTRSXT
SPECI KSXT 191724Z AUTO 16011G20KT 10SM SCT001 12/11 A2988 RMK AO2
T01170106





000
SAUS46 KMFR 191709
MTRSXT
SPECI KSXT 191708Z AUTO 16009G15KT 3SM BR BKN001 12/12 A2988 RMK AO2
T01170117





000
SAUS46 KMFR 191707
MTRSXT
SPECI KSXT 191706Z AUTO 16011KT 1 1/2SM BR OVC001 12/11 A2988 RMK
AO2 VIS 1/2V5 T01170111





000
SAUS46 KMFR 191657
MTRSXT
METAR KSXT 191656Z AUTO 17011KT 1/2SM FG VV001 11/11 A2988 RMK AO2
SLP095 T01110111





000
SAUS46 KMFR 191641
MTRSXT
SPECI KSXT 191640Z AUTO 17011KT 3/4SM BR VV002 11/11 A2988 RMK AO2
VIS 1/2V2 1/2 T01110111





000
SAUS46 KMFR 191607
MTRSXT
SPECI KSXT 191606Z AUTO 17011KT M1/4SM FG VV002 11/11 A2988 RMK AO2
T01060106





000
SAUS46 KMFR 191557
MTRSXT
METAR KSXT 191556Z AUTO 17011G18KT M1/4SM FG VV001 10/10 A2988 RMK
AO2 SLP096 T01000100





000
SAUS46 KMFR 191457
MTRSXT
METAR KSXT 191456Z AUTO 19012G22KT M1/4SM FG VV001 10/10 A2987 RMK
AO2 SLP090 T01000100 50004





000
SAUS46 KMFR 191406
MTRSXT
SPECI KSXT 191405Z AUTO 18009G18KT M1/4SM FG VV001 10/10 A2987 RMK
AO2 T01000100





000
SAUS46 KMFR 191357
MTRSXT
METAR KSXT 191356Z AUTO 19010KT 1/4SM FG VV002 10/10 A2987 RMK AO2
SLP091 T01000100





000
SAUS46 KMFR 191345
MTRSXT
SPECI KSXT 191344Z AUTO 19008KT 1/4SM FG VV002 11/11 A2988 RMK AO2
T01060106





000
SAUS46 KMFR 191331
MTRSXT
SPECI KSXT 191330Z AUTO 18010KT 1/2SM FG VV002 11/11 A2987 RMK AO2
T01060106





000
SAUS46 KMFR 191257
MTRSXT
METAR KSXT 191256Z AUTO 17010KT 1/4SM FG VV002 10/10 A2986 RMK AO2
SLP084 T01000100





000
SAUS46 KMFR 191227
MTRSXT
SPECI KSXT 191226Z AUTO 16010KT 1/4SM FG VV002 11/11 A2986 RMK AO2
T01060106





000
SAUS46 KMFR 191200
MTRMHS
METAR KMHS 191156Z AUTO 00000KT 10SM CLR 07/06 A2995 RMK AO2 SLP145
T00720061 10128 20056 56007





000
SAUS46 KMFR 191157
MTRSXT
METAR KSXT 191156Z AUTO 16011KT 1/4SM FG VV001 10/10 A2986 RMK AO2
SLP084 T01000100 10117 20100 58014





000
SAUS46 KMFR 191137
MTRSXT
SPECI KSXT 191136Z AUTO 18009KT 1/4SM FG VV001 10/10 A2986 RMK AO2
T01000100





000
SAUS46 KMFR 191113
MTRSXT
SPECI KSXT 191112Z AUTO 17008KT 3/4SM BR VV001 10/10 A2987 RMK AO2
T01000100





000
SAUS46 KMFR 191100
MTRMHS
METAR KMHS 191056Z AUTO 00000KT 10SM CLR 09/07 A2996 RMK AO2 SLP143
T00890067





000
SAUS46 KMFR 191058
MTRSXT
METAR KSXT 191056Z AUTO 17009KT 1/4SM FG VV001 10/10 A2987 RMK AO2
SLP087 T01000100





000
SAUS46 KMFR 191046
MTRSXT
SPECI KSXT 191045Z AUTO 20007KT 1/2SM FG VV001 11/11 A2988 RMK AO2
T01060106





000
SAUS46 KMFR 191046
MTRSXT
SPECI KSXT 191045Z AUTO 20007KT 1/2SM FG VV001 11/11 A2988 RMK AO2
T01060106





000
SAUS46 KMFR 191023
MTRSXT
SPECI KSXT 191022Z AUTO 19008KT 1/4SM FG VV001 11/11 A2989 RMK AO2
T01060106





000
SAUS46 KMFR 191013
MTRSXT
SPECI KSXT 191012Z AUTO 19008KT 3/4SM BR VV001 11/11 A2989 RMK AO2
T01060106





000
SAUS46 KMFR 191012
MTRSXT
SPECI KSXT 191010Z AUTO 20008KT 1 3/4SM BR BKN002 11/11 A2989 RMK
AO2 T01060106





000
SAUS46 KMFR 190957
MTRSXT
METAR KSXT 190956Z AUTO 18009KT 10SM FEW002 11/11 A2989 RMK AO2
SLP092 T01060106





000
SAUS46 KMFR 190957
MTRSXT
METAR KSXT 190956Z AUTO 18009KT 10SM FEW002 11/11 A2989 RMK AO2
SLP092 T01060106





000
SAUS46 KMFR 190900
MTRMHS
METAR KMHS 190856Z AUTO 00000KT 10SM CLR 07/05 A2997 RMK AO2 SLP153
T00670050 53003





000
SAUS46 KMFR 190857
MTRSXT
METAR KSXT 190856Z AUTO 20010KT 10SM CLR 11/11 A2990 RMK AO2 SLP096
T01110106 55004





000
SAUS46 KMFR 190757
MTRSXT
METAR KSXT 190756Z AUTO 20010KT 10SM CLR 11/11 A2990 RMK AO2 SLP093
T01110111 401720094





000
SAUS46 KMFR 190700
MTRMHS
METAR KMHS 190656Z AUTO 00000KT 10SM CLR 07/04 A2996 RMK AO2 SLP152
T00670044





000
SAUS46 KMFR 190658
MTRSXT
METAR KSXT 190656Z AUTO 20011KT 8SM SCT001 11/11 A2991 RMK AO2
SLP099 T01110111





000
SAUS46 KMFR 190615
MTRSXT
SPECI KSXT 190614Z AUTO 20009KT 10SM FEW002 12/11 A2991 RMK AO2
T01170111





000
SAUS46 KMFR 190600
MTRMHS
METAR KMHS 190556Z AUTO 00000KT 10SM CLR 08/05 A2996 RMK AO2 SLP152
T00780050 10194 20078 58001





000
SAUS46 KMFR 190557
MTRSXT
METAR KSXT 190556Z AUTO 19008KT 10SM CLR 12/11 A2992 RMK AO2 SLP106
T01170106 10156 20117 56012





000
SAUS46 KMFR 190457
MTRSXT
METAR KSXT 190456Z AUTO 20009KT 10SM CLR 12/11 A2993 RMK AO2 SLP112
T01170111





000
SAUS46 KMFR 190457
MTRSXT
METAR KSXT 190456Z AUTO 20009KT 10SM CLR 12/11 A2993 RMK AO2 SLP112
T01170111





000
SAUS46 KMFR 190400
MTRMHS
METAR KMHS 190356Z AUTO 00000KT 10SM CLR 09/06 A2997 RMK AO2 SLP157
T00940061





000
SAUS46 KMFR 190400
MTRMHS
METAR KMHS 190356Z AUTO 00000KT 10SM CLR 09/06 A2997 RMK AO2 SLP157
T00940061





000
SAUS46 KMFR 190357
MTRSXT
METAR KSXT 190356Z AUTO 20009KT 10SM CLR 12/11 A2995 RMK AO2 SLP120
T01220111





000
SAUS46 KMFR 190357
MTRSXT
METAR KSXT 190356Z AUTO 20009KT 10SM CLR 12/11 A2995 RMK AO2 SLP120
T01220111





000
SAUS46 KMFR 190300
MTRMHS
METAR KMHS 190256Z AUTO 00000KT 10SM CLR 11/08 A2997 RMK AO2 SLP157
T01060078 53001





000
SAUS46 KMFR 190257
MTRSXT
METAR KSXT 190256Z AUTO 19007KT 10SM CLR 14/09 A2996 RMK AO2 SLP122
T01390089 56007





000
SAUS46 KMFR 190157
MTRSXT
METAR KSXT 190156Z AUTO 21007KT 10SM CLR 14/09 A2996 RMK AO2 SLP122
T01390089





000
SAUS46 KMFR 190057
MTRSXT
METAR KSXT 190056Z AUTO 22003KT 10SM CLR 15/09 A2997 RMK AO2 SLP124
T01500089





000
SAUS46 KMFR 182357
MTRSXT
METAR KSXT 182356Z AUTO 10SM CLR 16/09 A2998 RMK AO2 SLP126
T01560094 10172 20122 56012





000
SAUS46 KMFR 182257
MTRSXT
METAR KSXT 182256Z AUTO 13005KT 10SM CLR 16/09 A2999 RMK AO2 SLP130
T01610089





000
SAUS46 KMFR 182157
MTRSXT
METAR KSXT 182156Z AUTO 14006KT 10SM CLR 17/10 A3000 RMK AO2 SLP130
T01670100





000
SAUS46 KMFR 182100
MTRMHS
METAR KMHS 182056Z AUTO 00000KT 10SM CLR 20/09 A3002 RMK AO2 SLP161
T02000089 58018





000
SAUS46 KMFR 182057
MTRSXT
METAR KSXT 182056Z AUTO 16006KT 10SM CLR 16/10 A3002 RMK AO2 SLP140
T01610100 58010





000
SAUS46 KMFR 182000
MTRMHS
METAR KMHS 181956Z AUTO 00000KT 10SM CLR 19/08 A3004 RMK AO2 SLP169
T01940083





000
SAUS46 KMFR 182000
MTRMHS
METAR KMHS 181956Z AUTO 00000KT 10SM CLR 19/08 A3004 RMK AO2 SLP169
T01940083





000
SAUS46 KMFR 181957
MTRSXT
METAR KSXT 181956Z AUTO VRB05KT 10SM CLR 17/11 A3004 RMK AO2 SLP143
T01720106





000
SAUS46 KMFR 181957
MTRSXT
METAR KSXT 181956Z AUTO VRB05KT 10SM CLR 17/11 A3004 RMK AO2 SLP143
T01720106





000
SAUS46 KMFR 181900
MTRMHS
METAR KMHS 181856Z AUTO 00000KT 10SM FEW036 17/08 A3005 RMK AO2
SLP177 T01720083





000
SAUS46 KMFR 181857
MTRSXT
METAR KSXT 181856Z AUTO 13006KT 10SM OVC034 15/09 A3005 RMK AO2
SLP150 T01500094





000
SAUS46 KMFR 181800
MTRMHS
METAR KMHS 181756Z AUTO 00000KT 10SM CLR 16/09 A3007 RMK AO2 SLP185
T01610089 10161 20100 58004





000
SAUS46 KMFR 181757
MTRSXT
METAR KSXT 181756Z AUTO 13007KT 10SM OVC033 12/08 A3005 RMK AO2
SLP158 T01220083 10122 20094 50007





000
SAUS46 KMFR 181657
MTRSXT
METAR KSXT 181656Z AUTO 13008KT 10SM FEW023 OVC034 11/08 A3005 RMK
AO2 SLP160 T01110078





000
SAUS46 KMFR 181657
MTRSXT
METAR KSXT 181656Z AUTO 13008KT 10SM FEW023 OVC034 11/08 A3005 RMK
AO2 SLP160 T01110078





000
SAUS46 KMFR 181626
MTRSXT
SPECI KSXT 181624Z AUTO 13008KT 10SM SCT024 OVC032 11/07 A3005 RMK
AO2 T01060072





000
SAUS46 KMFR 181600
MTRMHS
METAR KMHS 181556Z AUTO 00000KT 10SM OVC038 11/08 A3010 RMK AO2
SLP202 T01110083





000
SAUS46 KMFR 181600
MTRMHS
METAR KMHS 181556Z AUTO 00000KT 10SM OVC038 11/08 A3010 RMK AO2
SLP202 T01110083





000
SAUS46 KMFR 181557
MTRSXT
METAR KSXT 181556Z AUTO 13009KT 10SM OVC024 10/07 A3005 RMK AO2
SLP159 T01000072





000
SAUS46 KMFR 181557
MTRSXT
METAR KSXT 181556Z AUTO 13009KT 10SM OVC024 10/07 A3005 RMK AO2
SLP159 T01000072





000
SAUS46 KMFR 181500
MTRMHS
METAR KMHS 181456Z AUTO 00000KT 10SM BKN023 OVC043 10/08 A3009 RMK
AO2 SLP199 T01000078 53005





000
SAUS46 KMFR 181500
MTRMHS
METAR KMHS 181456Z AUTO 00000KT 10SM BKN023 OVC043 10/08 A3009 RMK
AO2 SLP199 T01000078 53005





000
SAUS46 KMFR 181457
MTRSXT
METAR KSXT 181456Z AUTO 13008KT 10SM BKN021 OVC030 09/07 A3003 RMK
AO2 SLP153 T00940072 51005





000
SAUS46 KMFR 181457
MTRSXT
METAR KSXT 181456Z AUTO 13008KT 10SM BKN021 OVC030 09/07 A3003 RMK
AO2 SLP153 T00940072 51005





000
SAUS46 KMFR 181400
MTRMHS
METAR KMHS 181356Z AUTO 00000KT 10SM OVC021 10/08 A3008 RMK AO2
SLP196 T01000078





000
SAUS46 KMFR 181357
MTRSXT
METAR KSXT 181356Z AUTO 13007KT 10SM SCT018 OVC027 10/07 A3003 RMK
AO2 SLP153 T01000072





000
SAUS46 KMFR 181257
MTRSXT
METAR KSXT 181256Z AUTO 18009KT 10SM OVC023 09/08 A3002 RMK AO2
SLP152 T00940078





000
SAUS46 KMFR 181157
MTRSXT
METAR KSXT 181156Z AUTO 15008KT 10SM OVC018 09/09 A3001 RMK AO2
SLP147 70007 T00940094 10100 20094 55000





000
SAUS46 KMFR 181127
MTRSXT
SPECI KSXT 181126Z AUTO 18008KT 10SM SCT016 OVC022 09/09 A3001 RMK
AO2 T00940094





000
SAUS46 KMFR 181127
MTRSXT
SPECI KSXT 181126Z AUTO 18008KT 10SM SCT016 OVC022 09/09 A3001 RMK
AO2 T00940094





000
SAUS46 KMFR 181120
MTRSXT
SPECI KSXT 181119Z AUTO 18008KT 1 3/4SM BR BKN016 OVC022 09/09 A3001
RMK AO2 VIS 1/2V5 T00940094





000
SAUS46 KMFR 181120
MTRSXT
SPECI KSXT 181119Z AUTO 18008KT 1 3/4SM BR BKN016 OVC022 09/09 A3001
RMK AO2 VIS 1/2V5 T00940094





000
SAUS46 KMFR 181117
MTRSXT
SPECI KSXT 181116Z AUTO 17009KT 3/4SM BR FEW001 BKN015 OVC022 09/09
A3001 RMK AO2 VIS 1/4V5 T00940094





000
SAUS46 KMFR 181117
MTRSXT
SPECI KSXT 181116Z AUTO 17009KT 3/4SM BR FEW001 BKN015 OVC022 09/09
A3001 RMK AO2 VIS 1/4V5 T00940094





000
SAUS46 KMFR 181109
MTRSXT
SPECI KSXT 181108Z AUTO 19007KT 1 1/4SM BR FEW001 OVC015 09/09 A3001
RMK AO2 T00940094





000
SAUS46 KMFR 181109
MTRSXT
SPECI KSXT 181108Z AUTO 19007KT 1 1/4SM BR FEW001 OVC015 09/09 A3001
RMK AO2 T00940094





000
SAUS46 KMFR 181100
MTRMHS
METAR KMHS 181056Z AUTO 00000KT 10SM BKN030 OVC046 11/07 A3006 RMK
AO2 SLP184 T01060072





000
SAUS46 KMFR 181100
MTRMHS
METAR KMHS 181056Z AUTO 00000KT 10SM BKN030 OVC046 11/07 A3006 RMK
AO2 SLP184 T01060072





000
SAUS46 KMFR 181057
MTRSXT
METAR KSXT 181056Z AUTO 18010KT 4SM BR OVC015 09/09 A3001 RMK AO2
SLP145 T00940094





000
SAUS46 KMFR 181057
MTRSXT
METAR KSXT 181056Z AUTO 18010KT 4SM BR OVC015 09/09 A3001 RMK AO2
SLP145 T00940094





000
SAUS46 KMFR 181051
MTRSXT
SPECI KSXT 181049Z AUTO 17010KT 10SM OVC015 09/09 A3001 RMK AO2
T00940094





000
SAUS46 KMFR 181051
MTRSXT
SPECI KSXT 181049Z AUTO 17010KT 10SM OVC015 09/09 A3001 RMK AO2
T00940094





000
SAUS46 KMFR 181039
MTRSXT
SPECI KSXT 181038Z AUTO 17010KT 3SM BR BKN013 OVC022 09/09 A3001 RMK
AO2 T00940094





000
SAUS46 KMFR 181034
MTRSXT
SPECI KSXT 181032Z AUTO 16008KT 1 3/4SM BR OVC015 09/09 A3001 RMK
AO2 VIS 3/4V5 T00940094





000
SAUS46 KMFR 181026
MTRSXT
SPECI KSXT 181025Z AUTO 18009KT 1/2SM FG BKN015 OVC021 09/09 A3001
RMK AO2 T00940094





000
SAUS46 KMFR 181017
MTRSXT
SPECI KSXT 181016Z AUTO 18010KT 1SM BR FEW010 OVC013 09/09 A3001 RMK
AO2 T00940094





000
SAUS46 KMFR 181017
MTRSXT
SPECI KSXT 181016Z AUTO 18010KT 1SM BR FEW010 OVC013 09/09 A3001 RMK
AO2 T00940094





000
SAUS46 KMFR 180957
MTRSXT
METAR KSXT 180956Z AUTO 18011KT 1/4SM FG SCT006 BKN014 OVC021 09/09
A3001 RMK AO2 SLP142 T00940094





000
SAUS46 KMFR 180948
MTRSXT
SPECI KSXT 180947Z AUTO 18011KT 1/4SM FG FEW008 OVC014 09/09 A3001
RMK AO2 T00940094





000
SAUS46 KMFR 180948
MTRSXT
SPECI KSXT 180947Z AUTO 18011KT 1/4SM FG FEW008 OVC014 09/09 A3001
RMK AO2 T00940094





000
SAUS46 KMFR 180940
MTRSXT
SPECI KSXT 180938Z AUTO 18010KT 3/4SM BR OVC015 09/09 A3001 RMK AO2
T00940094





000
SAUS46 KMFR 180935
MTRSXT
SPECI KSXT 180934Z AUTO 17010KT 1 1/2SM BR OVC015 09/09 A3001 RMK
AO2 T00940094





000
SAUS46 KMFR 180930
MTRSXT
SPECI KSXT 180929Z AUTO 17011KT 3SM BR OVC015 09/09 A3001 RMK AO2
T00940094





000
SAUS46 KMFR 180920
MTRSXT
SPECI KSXT 180919Z AUTO 18010KT 1 3/4SM BR OVC015 09/09 A3001 RMK
AO2 VIS 3/4V5 T00940094





000
SAUS46 KMFR 180914
MTRSXT
SPECI KSXT 180913Z AUTO 18009KT 5SM BR OVC015 09/09 A3001 RMK AO2
T00940094





000
SAUS46 KMFR 180906
MTRSXT
SPECI KSXT 180905Z AUTO 20008KT 2SM BR FEW005 OVC016 09/09 A3001 RMK
AO2 T00940094





000
SAUS46 KMFR 180902
MTRSXT
SPECI KSXT 180901Z AUTO 19008KT 1 1/2SM BR FEW010 OVC016 09/09 A3001
RMK AO2 VIS 3/4V5 T00940094





000
SAUS46 KMFR 180857
MTRSXT
METAR KSXT 180856Z AUTO 19008KT 3/4SM BR FEW009 BKN016 OVC033 09/09
A3001 RMK AO2 SLP145 T00940094 51006





000
SAUS46 KMFR 180852
MTRSXT
SPECI KSXT 180851Z AUTO 18009KT 1/4SM FG FEW009 BKN016 OVC033 09/09
A3001 RMK AO2





000
SAUS46 KMFR 180844
MTRSXT
SPECI KSXT 180843Z AUTO 19009KT 1/4SM FG BKN014 OVC026 09/09 A3001
RMK AO2 T00940094





000
SAUS46 KMFR 180838
MTRSXT
SPECI KSXT 180837Z AUTO 18009KT 3/4SM BR BKN016 BKN025 OVC038 09/09
A3001 RMK AO2 T00940094





000
SAUS46 KMFR 180836
MTRSXT
SPECI KSXT 180835Z AUTO 18009KT 1 1/2SM BR BKN016 BKN025 OVC035
09/09 A3001 RMK AO2 T00940094





000
SAUS46 KMFR 180826
MTRSXT
SPECI KSXT 180825Z AUTO 19010KT 7SM FEW009 OVC015 09/09 A3000 RMK
AO2 T00940089





000
SAUS46 KMFR 180824
MTRSXT
SPECI KSXT 180823Z AUTO 18009KT 3SM BR OVC013 09/09 A3000 RMK AO2
T00940089





000
SAUS46 KMFR 180823
MTRSXT
SPECI KSXT 180821Z AUTO 18009KT 1 1/2SM BR OVC013 09/09 A3000 RMK
AO2 T00940089





000
SAUS46 KMFR 180818
MTRSXT
SPECI KSXT 180817Z AUTO 18010KT 1/2SM FG OVC011 09/09 A3000 RMK AO2
T00940094





000
SAUS46 KMFR 180811
MTRSXT
SPECI KSXT 180810Z AUTO 18008KT 1/4SM FG BKN008 OVC013 09/09 A3000
RMK AO2 T00940094





000
SAUS46 KMFR 180806
MTRSXT
SPECI KSXT 180805Z AUTO 18009KT 1 1/4SM BR BKN008 OVC013 09/09 A3000
RMK AO2 T00940094





000
SAUS46 KMFR 180757
MTRSXT
METAR KSXT 180756Z AUTO 17011KT 3/4SM BR BKN008 OVC013 09/09 A3000
RMK AO2 SLP141 T00940094 401280072





000
SAUS46 KMFR 180740
MTRSXT
SPECI KSXT 180739Z AUTO 18010KT 1/2SM FG BKN006 OVC015 09/09 A2999
RMK AO2 T00940094





000
SAUS46 KMFR 180732
MTRSXT
SPECI KSXT 180731Z AUTO 18011KT 1 1/4SM BR SCT002 OVC016 09/09 A2999
RMK AO2 T00940094





000
SAUS46 KMFR 180730
MTRSXT
SPECI KSXT 180729Z AUTO 18011KT 2 1/2SM BR FEW002 OVC016 09/09 A2999
RMK AO2 T00940094





000
SAUS46 KMFR 180657
MTRSXT
METAR KSXT 180656Z AUTO 18011KT 10SM SCT017 BKN024 OVC029 10/09
A2999 RMK AO2 SLP138 T01000089





000
SAUS46 KMFR 180557
MTRSXT
METAR KSXT 180556Z AUTO 16009KT 10SM OVC025 09/09 A2998 RMK AO2
SLP137 60007 T00940089 10106 20094 53013





000
SAUS46 KMFR 180458
MTRSXT
METAR KSXT 180456Z AUTO 16009KT 10SM OVC027 10/08 A2997 RMK AO2
RAE26 SLP132 P0000 T01000083





000
SAUS46 KMFR 180458
MTRSXT
METAR KSXT 180456Z AUTO 16009KT 10SM OVC027 10/08 A2997 RMK AO2
RAE26 SLP132 P0000 T01000083





000
SAUS46 KMFR 180441
MTRSXT
SPECI KSXT 180439Z AUTO 15010KT 10SM BKN028 OVC070 10/08 A2997 RMK
AO2 RAE26 P0000 T01000078





000
SAUS46 KMFR 180426
MTRSXT
SPECI KSXT 180425Z AUTO 15010KT 10SM -RA SCT026 OVC070 10/08 A2996
RMK AO2 P0000 T01000078





000
SAUS46 KMFR 180426
MTRSXT
SPECI KSXT 180425Z AUTO 15010KT 10SM -RA SCT026 OVC070 10/08 A2996
RMK AO2 P0000 T01000078





000
SAUS46 KMFR 180419
MTRSXT
SPECI KSXT 180417Z AUTO 15012KT 10SM -RA BKN027 OVC070 10/08 A2996
RMK AO2 P0000 T01000083





000
SAUS46 KMFR 180419
MTRSXT
SPECI KSXT 180417Z AUTO 15012KT 10SM -RA BKN027 OVC070 10/08 A2996
RMK AO2 P0000 T01000083





000
SAUS46 KMFR 180357
MTRSXT
METAR KSXT 180356Z AUTO 16014KT 10SM -RA FEW030 OVC070 10/08 A2995
RMK AO2 SLP126 P0002 T01000083





000
SAUS46 KMFR 180322
MTRSXT
SPECI KSXT 180321Z AUTO 16013KT 10SM -RA SCT029 BKN042 OVC070 10/08
A2995 RMK AO2 P0001 T01000083





000
SAUS46 KMFR 180257
MTRSXT
METAR KSXT 180256Z AUTO 16013KT 10SM -RA BKN029 BKN043 OVC055 10/08
A2994 RMK AO2 SLP123 P0002 60005 T01000083 51007





000
SAUS46 KMFR 180252
MTRSXT
SPECI KSXT 180251Z AUTO 16013KT 10SM -RA BKN029 BKN043 OVC055 10/08
A2994 RMK AO2 P0002





000
SAUS46 KMFR 180245
MTRSXT
SPECI KSXT 180244Z AUTO 16015KT 10SM -RA BKN031 BKN043 OVC060 10/08
A2994 RMK AO2 P0002 T01000083





000
SAUS46 KMFR 180236
MTRSXT
SPECI KSXT 180235Z AUTO 16015KT 10SM -RA BKN029 OVC060 10/08 A2994
RMK AO2 P0001 T01000083





000
SAUS46 KMFR 180157
MTRSXT
METAR KSXT 180156Z AUTO 16012KT 9SM -RA FEW037 BKN055 OVC085 10/08
A2993 RMK AO2 RAB0058E17B35 SLP117 P0001 T01000083





000
SAUS46 KMFR 180057
MTRSXT
METAR KSXT 180056Z AUTO 16007KT 10SM SCT040 OVC050 09/08 A2992 RMK
AO2 RAB11E55 SLP117 P0002 T00940083





000
SAUS46 KMFR 172357
MTRSXT
METAR KSXT 172356Z AUTO 19006KT 10SM OVC032 10/08 A2991 RMK AO2
SLP116 60000 T01000083 10128 20100 53006





000
SAUS46 KMFR 172357
MTRSXT
METAR KSXT 172356Z AUTO 19006KT 10SM OVC032 10/08 A2991 RMK AO2
SLP116 60000 T01000083 10128 20100 53006





000
SAUS46 KMFR 172257
MTRSXT
METAR KSXT 172256Z AUTO 18005KT 9SM BKN033 BKN042 OVC075 11/07 A2990
RMK AO2 RAB28E56 SLP111 P0000 T01060072





000
SAUS46 KMFR 172257
MTRSXT
METAR KSXT 172256Z AUTO 18005KT 9SM BKN033 BKN042 OVC075 11/07 A2990
RMK AO2 RAB28E56 SLP111 P0000 T01060072





000
SAUS46 KMFR 172157
MTRSXT
METAR KSXT 172156Z AUTO 15007KT 10SM OVC035 12/07 A2989 RMK AO2
SLP104 T01220067





000
SAUS46 KMFR 172157
MTRSXT
METAR KSXT 172156Z AUTO 15007KT 10SM OVC035 12/07 A2989 RMK AO2
SLP104 T01220067





000
SAUS46 KMFR 172100
MTRMHS
METAR KMHS 172056Z AUTO VRB04KT 10SM FEW060 SCT080 13/06 A2999 RMK
AO2 SLP162 T01330061 58001





000
SAUS46 KMFR 172100
MTRMHS
METAR KMHS 172056Z AUTO VRB04KT 10SM FEW060 SCT080 13/06 A2999 RMK
AO2 SLP162 T01330061 58001





000
SAUS46 KMFR 172057
MTRSXT
METAR KSXT 172056Z AUTO 15006KT 10SM OVC031 11/06 A2989 RMK AO2
SLP107 T01110056 51009





000
SAUS46 KMFR 172030
MTRSXT
SPECI KSXT 172029Z AUTO 17007KT 10SM OVC029 11/06 A2989 RMK AO2
T01060061





000
SAUS46 KMFR 171957
MTRSXT
METAR KSXT 171956Z AUTO VRB06KT 10SM OVC032 10/06 A2989 RMK AO2
SLP108 T01000056





000
SAUS46 KMFR 171957
MTRSXT
METAR KSXT 171956Z AUTO VRB06KT 10SM OVC032 10/06 A2989 RMK AO2
SLP108 T01000056





000
SAUS46 KMFR 171857
MTRSXT
METAR KSXT 171856Z AUTO 15007KT 120V190 10SM OVC027 11/06 A2988 RMK
AO2 SLP103 T01060056





000
SAUS46 KMFR 171826
MTRSXT
SPECI KSXT 171825Z AUTO 14011G17KT 10SM BKN029 OVC100 11/06 A2987
RMK AO2 T01060056





000
SAUS46 KMFR 171757
MTRSXT
METAR KSXT 171756Z AUTO 14010KT 10SM SCT034 OVC095 11/05 A2986 RMK
AO2 SLP096 T01060050 10106 20078 51013





000
SAUS46 KMFR 171700
MTRMHS
METAR KMHS 171656Z AUTO VRB03KT 10SM SCT050 12/04 A2999 RMK AO2
SLP164 T01220039





000
SAUS46 KMFR 171657
MTRSXT
METAR KSXT 171656Z AUTO 14012KT 10SM OVC035 10/04 A2985 RMK AO2
SLP094 T01000044





000
SAUS46 KMFR 171557
MTRSXT
METAR KSXT 171556Z AUTO 14012G19KT 10SM BKN034 09/04 A2983 RMK AO2
SLP088 T00940039





000
SAUS46 KMFR 171557
MTRSXT
METAR KSXT 171556Z AUTO 14012G19KT 10SM BKN034 09/04 A2983 RMK AO2
SLP088 T00940039





000
SAUS46 KMFR 171457
MTRSXT
METAR KSXT 171456Z AUTO 14013G19KT 10SM FEW036 09/03 A2982 RMK AO2
SLP079 T00940033 58006





000
SAUS46 KMFR 171357
MTRSXT
METAR KSXT 171356Z AUTO 14012G17KT 10SM SCT041 09/04 A2983 RMK AO2
SLP083 T00940039





000
SAUS46 KMFR 171257
MTRSXT
METAR KSXT 171256Z AUTO 14012KT 10SM FEW035 FEW110 09/04 A2983 RMK
AO2 SLP083 T00890044





000
SAUS46 KMFR 171157
MTRSXT
METAR KSXT 171156Z AUTO 14009KT 10SM SCT110 08/04 A2984 RMK AO2
SLP086 T00780044 10083 20072 58005





000
SAUS46 KMFR 171157
MTRSXT
METAR KSXT 171156Z AUTO 14009KT 10SM SCT110 08/04 A2984 RMK AO2
SLP086 T00780044 10083 20072 58005





000
SAUS46 KMFR 171057
MTRSXT
METAR KSXT 171056Z AUTO 14011KT 10SM SCT100 08/04 A2983 RMK AO2
SLP082 T00780044





000
SAUS46 KMFR 171057
MTRSXT
METAR KSXT 171056Z AUTO 14011KT 10SM SCT100 08/04 A2983 RMK AO2
SLP082 T00780044





000
SAUS46 KMFR 170957
MTRSXT
METAR KSXT 170956Z AUTO 18009KT 10SM CLR 08/04 A2986 RMK AO2 SLP092
T00780044





000
SAUS46 KMFR 170857
MTRSXT
METAR KSXT 170856Z AUTO 18011KT 10SM CLR 08/04 A2985 RMK AO2 SLP090
T00780044 56003





000
SAUS46 KMFR 170757
MTRSXT
METAR KSXT 170756Z AUTO 19012G18KT 10SM FEW110 08/04 A2985 RMK AO2
SLP092 T00780044 401390050





000
SAUS46 KMFR 170657
MTRSXT
METAR KSXT 170656Z AUTO 18012KT 10SM FEW100 FEW120 08/05 A2986 RMK
AO2 SLP094 T00830050





000
SAUS46 KMFR 170557
MTRSXT
METAR KSXT 170556Z AUTO 19010KT 10SM BKN110 08/05 A2986 RMK AO2
SLP095 T00830050 10122 20083 56013





000
SAUS46 KMFR 170557
MTRSXT
METAR KSXT 170556Z AUTO 19010KT 10SM BKN110 08/05 A2986 RMK AO2
SLP095 T00830050 10122 20083 56013





000
SAUS46 KMFR 170500
MTRMHS
METAR KMHS 170456Z AUTO 00000KT 10SM OVC036 10/07 A2996 RMK AO2
SLP153 T01000067





000
SAUS46 KMFR 170500
MTRMHS
METAR KMHS 170456Z AUTO 00000KT 10SM OVC036 10/07 A2996 RMK AO2
SLP153 T01000067





000
SAUS46 KMFR 170457
MTRSXT
METAR KSXT 170456Z AUTO 18010KT 10SM FEW110 09/06 A2988 RMK AO2
SLP102 T00890056





000
SAUS46 KMFR 170457
MTRSXT
METAR KSXT 170456Z AUTO 18010KT 10SM FEW110 09/06 A2988 RMK AO2
SLP102 T00890056





    US Dept of Commerce
    National Oceanic and Atmospheric Administration
    National Weather Service
    1325 East West Highway
    Silver Spring, MD 20910
    Page Author: NWS Internet Services Team
Disclaimer
Information Quality
Credits
Glossary
Privacy Policy
Freedom of Information Act (FOIA)
About Us
Career Opportunities